ADDS TAF Data INFO
IDs: Format: Raw Decoded Include METARs

Data at: 0234 UTC 21 Nov 2017

Region: TOP
KATL 210225Z 2102/2206 12005KT P6SM BKN200
  FM210600 11006KT P6SM BKN030 BKN250
  FM211000 11005KT P6SM BKN010 OVC030
  FM211700 11005KT P6SM BKN030
  FM220200 05005KT P6SM BKN020


KBOS 202323Z 2100/2206 26012G20KT P6SM SCT070
  FM210400 24010KT P6SM SCT060
  FM211400 22012G22KT P6SM FEW250
  FM211800 22018G29KT P6SM FEW250
  FM220300 22009KT P6SM BKN250


KBWI 202320Z 2100/2206 22006KT P6SM SCT250
  FM211100 21008KT P6SM FEW250 WS020/22040KT
  FM211300 21009KT P6SM FEW250
  FM220500 21007KT P6SM BKN060


KCLE 202331Z 2100/2206 20012KT P6SM SKC
  FM210400 21014KT P6SM SCT250 WS020/23050KT
  FM211400 21015G25KT P6SM BKN150
  FM211700 24020G32KT P6SM OVC100


KCLT 210142Z 2102/2124 18003KT P6SM BKN250
  FM211000 17003KT P6SM SCT035 BKN200
  FM211500 16003KT P6SM BKN025 OVC050
  FM211800 06004KT P6SM -DZ OVC015


KCVG 202336Z 2100/2206 17007KT P6SM SCT250
  FM210600 20008KT P6SM SCT250 WS020/22035KT
  FM211400 21013G22KT P6SM BKN200
  FM212200 23009KT P6SM BKN150
  FM220500 30009KT P6SM BKN050


KDCA 202320Z 2100/2124 20006KT P6SM SCT250
  FM211400 21010KT P6SM FEW200


KDEN 210157Z 2102/2206 18011KT P6SM SCT160 BKN200
  FM211100 12006KT P6SM SCT070 BKN110
  FM211500 03015G22KT P6SM BKN060 BKN110
  FM211800 08012KT P6SM SCT060 BKN110
  FM212100 15007KT P6SM FEW060 SCT110
  FM220100 20008KT P6SM FEW110 SCT250


KDFW 202320Z 2100/2206 18010KT P6SM SCT250
  FM212000 35010KT P6SM SCT150


KDTW 210217Z 2102/2206 20014KT P6SM BKN250 WS012/22042KT
  FM211400 22016G26KT P6SM BKN150
  FM211800 24015G24KT P6SM BKN035 OVC080
  FM212100 28014G22KT P6SM SCT025 OVC045
  PROB30 2121/2124 5SM -SHRA BKN025 OVC040
  FM220000 30012G22KT P6SM BKN040


KEWR 210233Z 2103/2206 23010KT P6SM SKC
  FM210600 22006KT P6SM SCT250
  FM211400 22010KT P6SM SCT250
  FM211700 21013G20KT P6SM SCT250
  FM212300 21009KT P6SM SCT250
  FM220300 22005KT P6SM SCT040 SCT250


KFLL 202322Z 2100/2206 05012KT P6SM FEW030 SCT040 BKN060
  FM210300 07010KT P6SM VCSH SCT030 BKN050
  FM210600 09010KT P6SM -SHRA SCT025 BKN035
  FM211300 12010KT P6SM VCSH SCT025 SCT035
  FM220000 VRB05KT P6SM FEW025 SCT050


KIAD 202320Z 2100/2206 20006KT P6SM SCT250
  FM211000 19008KT P6SM FEW250 WS020/22035KT
  FM211400 20009KT P6SM FEW200
  FM220300 20009KT P6SM BKN060


KIAH 202321Z 2100/2206 12012KT P6SM FEW050 SCT250
  FM210300 14002KT P6SM SCT025
  FM211600 17007KT P6SM SCT020 BKN030
  FM211800 16006KT P6SM BKN050
  FM220300 07006KT P6SM BKN025


KJFK 210233Z 2103/2206 24014KT P6SM SKC
  FM210600 23011KT P6SM SCT250
  FM211400 21016G23KT P6SM SCT250
  FM220300 22012KT P6SM SCT040 SCT250


KLAS 202320Z 2100/2206 VRB05KT P6SM FEW200 BKN250
  FM210300 21006KT P6SM BKN200
  FM211600 VRB05KT P6SM BKN250
  FM220300 25006KT P6SM SCT250


KLAX 202340Z 2100/2206 28006KT P6SM FEW150 BKN250
  FM210300 VRB03KT P6SM BKN250
  FM212000 27008KT P6SM SKC
  FM220400 VRB03KT P6SM SKC


KLGA 210233Z 2103/2124 24012KT P6SM SKC
  FM210800 22009KT P6SM SCT250
  FM211500 22013G20KT P6SM SCT250


KMCO 202337Z 2100/2206 07010KT P6SM FEW050 SCT250
  FM210500 05004KT P6SM SCT050 BKN100
  FM211300 08006KT P6SM VCSH BKN050 OVC080
  FM211700 12008KT 5SM -RA BKN035 OVC050
  TEMPO 2118/2122 3SM RA BR BKN020 OVC040
  FM212300 09005KT P6SM VCSH SCT040 OVC060


KMDW 202335Z 2100/2124 21018G26KT P6SM BKN250 WS020/22055KT
  FM210900 23014KT P6SM BKN150 WS020/25040KT
  FM211500 30015G25KT P6SM BKN050


KMEM 202320Z 2100/2206 19005KT P6SM FEW250
  FM211500 21008KT P6SM BKN250
  FM220000 23005KT P6SM SCT150 BKN250
  FM220300 36006KT P6SM SCT150 BKN250


KMIA 202322Z 2100/2206 05007KT P6SM VCSH SCT025 BKN045
  FM210200 08005KT P6SM -SHRA SCT025 BKN035
  FM210800 12008KT P6SM VCSH SCT025 BKN035
  FM220000 VRB03KT P6SM FEW025 SCT035


KMSP 202322Z 2100/2206 22009KT P6SM BKN200
  FM210400 27009KT P6SM SCT250
  FM210800 29015G22KT P6SM BKN050
  FM211200 30019G28KT P6SM OVC050
  FM211700 31021G30KT P6SM SCT150
  FM212200 32017G23KT P6SM SKC
  FM220100 31013KT P6SM SKC


KORD 202335Z 2100/2206 21018G26KT P6SM BKN250 WS020/22055KT
  FM210900 23014KT P6SM BKN150 WS020/25040KT
  FM211500 30015G25KT P6SM BKN050
  FM220100 32010KT P6SM SCT050


KPDX 202323Z 2100/2124 VRB03KT P6SM BKN050 BKN100
  FM210900 10007KT P6SM -RA SCT025 OVC045
  FM211700 11012KT 4SM -RA BR SCT015 OVC025
  FM212000 12015KT 4SM -RA BR SCT015 OVC025


TAF COR KPHL 202327Z 2100/2206 22005KT P6SM SCT250
  FM211400 21009KT P6SM SCT250
  FM211700 21012G20KT P6SM SCT250
  FM220000 21009KT P6SM SCT200


KPHX 202327Z 2100/2206 27004KT P6SM BKN250
  FM210600 09005KT P6SM BKN250
  FM212100 28005KT P6SM FEW250


KPIT 202320Z 2100/2206 19006KT P6SM SKC
  FM210400 20007KT P6SM SCT250 WS020/23040KT
  FM211500 21012G24KT P6SM SCT150
  FM220500 26007KT P6SM -SHRA BKN040


KSAN 202320Z 2100/2206 VRB04KT P6SM SCT200
  FM212100 30008KT P6SM SCT200
  FM220000 VRB04KT P6SM SCT200


KSEA 202336Z 2100/2206 21011KT P6SM VCSH SCT026 BKN040
  FM210400 10004KT P6SM BKN120 OVC250
  FM211000 05005KT P6SM SCT025 OVC045
  FM211400 05007KT 4SM -RA BR OVC020
  FM211800 06008KT 2SM -RA BR OVC015
  FM212000 07008KT P6SM -SHRA SCT025 OVC045


KSFO 210002Z 2100/2206 02004KT P6SM BKN030 OVC080
  FM210300 34004KT P6SM BKN030
  TEMPO 2112/2116 5SM BR SCT008 OVC030
  FM211600 10004KT P6SM FEW008 SCT120
  FM212000 VRB03KT P6SM FEW010
  FM220000 33006KT P6SM FEW012
  FM220400 29004KT P6SM SCT012


KSLC 202340Z 2100/2206 15006KT P6SM VCSH SCT040 BKN060
  FM211800 34005KT P6SM SCT060 BKN090
  FM220300 15005KT P6SM SCT070 BKN110


KSTL 202321Z 2100/2206 18011KT P6SM SKC
  FM210300 19011KT P6SM FEW250 WS014/24040KT
  FM211400 22009KT P6SM BKN140
  FM211700 27008KT P6SM SCT110
  FM212000 32010KT P6SM SCT080
  FM220200 34006KT P6SM SKC


KTPA 202323Z 2100/2206 08007KT P6SM SCT050 SCT250
  FM210500 07006KT P6SM BKN050
  FM211200 09006KT P6SM VCSH SCT025 OVC050
  FM211600 14006KT P6SM VCSH SCT030 OVC050